createdAt,value
2023-09-09T16:08:16.078Z,31.89
2023-09-09T16:13:08.521Z,32.52
2023-09-09T16:18:01.552Z,33.40
2023-09-09T16:22:53.916Z,33.90
2023-09-09T16:27:46.749Z,34.02
2023-09-09T16:32:39.496Z,34.32
2023-09-09T16:37:31.895Z,34.80
2023-09-09T16:42:24.881Z,34.94
2023-09-09T16:47:18.453Z,35.38
2023-09-09T16:52:10.732Z,35.35
2023-09-09T16:57:08.172Z,35.57
2023-09-09T17:02:00.595Z,35.69
2023-09-09T17:06:52.799Z,35.71
2023-09-09T17:11:44.877Z,35.63
2023-09-09T17:16:37.455Z,35.88
2023-09-09T17:21:30.918Z,36.37
2023-09-09T17:26:23.905Z,36.68
2023-09-09T17:31:17.290Z,37.11
2023-09-09T17:36:09.763Z,38.00
2023-09-09T17:41:01.843Z,38.39
2023-09-09T17:45:55.379Z,38.68
2023-09-09T17:50:50.607Z,39.23
2023-09-09T17:55:43.306Z,39.62
2023-09-09T18:00:35.533Z,40.58
2023-09-09T18:05:37.618Z,41.65
2023-09-09T18:10:29.881Z,42.64
2023-09-09T18:15:22.781Z,43.78
2023-09-09T18:20:14.859Z,44.79
2023-09-09T18:25:06.990Z,45.31
2023-09-09T18:30:01.343Z,46.14
2023-09-09T18:34:54.631Z,46.53
2023-09-09T18:39:46.717Z,47.37
2023-09-09T18:44:41.664Z,47.96
2023-09-09T18:49:36.846Z,48.45
2023-09-09T18:54:29.061Z,48.97
2023-09-09T18:59:21.275Z,49.24
2023-09-09T19:04:14.663Z,50.29
2023-09-09T19:09:08.460Z,51.11
2023-09-09T19:14:00.832Z,51.59
2023-09-09T19:18:54.585Z,52.04
2023-09-09T19:23:46.689Z,52.69
2023-09-09T19:28:41.919Z,53.28
2023-09-09T19:33:35.900Z,53.95
2023-09-09T19:38:28.360Z,54.14
2023-09-09T19:43:24.899Z,55.25
2023-09-09T19:48:17.173Z,56.00
2023-09-09T19:53:10.994Z,56.63
2023-09-09T19:58:06.083Z,57.13
2023-09-09T20:02:58.255Z,57.80
2023-09-09T20:07:56.175Z,56.58
2023-09-09T20:12:50.238Z,56.89
2023-09-09T20:17:45.873Z,57.86
2023-09-09T20:22:43.862Z,58.41
2023-09-09T20:27:36.035Z,58.80
2023-09-09T20:32:28.343Z,59.45
2023-09-09T20:37:20.768Z,59.75
2023-09-09T20:42:13.214Z,60.01
2023-09-09T20:47:11.469Z,60.52
2023-09-09T20:52:07.736Z,61.29
2023-09-09T20:57:00.781Z,61.73
2023-09-09T21:01:53.230Z,62.38
2023-09-09T21:06:45.227Z,62.97
2023-09-09T21:11:38.004Z,63.16
2023-09-09T21:17:01.224Z,64.13
2023-09-09T21:21:53.458Z,64.75
2023-09-09T21:26:46.118Z,64.91
2023-09-09T21:31:38.430Z,65.30
2023-09-09T21:36:30.676Z,66.51
2023-09-09T21:41:22.634Z,67.07
2023-09-09T21:46:14.793Z,69.13
2023-09-09T21:51:06.819Z,69.40
2023-09-09T21:56:00.306Z,69.18
2023-09-09T22:00:52.433Z,68.99
2023-09-09T22:05:45.647Z,69.31
2023-09-09T22:10:38.070Z,69.75
2023-09-09T22:15:30.093Z,70.96
2023-09-09T22:20:22.152Z,70.67
2023-09-09T22:25:15.968Z,71.06
2023-09-09T22:30:08.662Z,73.01
2023-09-09T22:35:06.049Z,73.62
2023-09-09T22:39:58.205Z,73.99
2023-09-09T22:44:50.426Z,74.31
2023-09-09T22:49:42.843Z,74.14
2023-09-09T22:54:35.163Z,75.03
2023-09-09T22:59:28.709Z,76.46
2023-09-09T23:04:21.042Z,78.94
2023-09-09T23:09:13.297Z,78.60
2023-09-09T23:14:05.574Z,80.50
2023-09-09T23:18:58.318Z,79.28
2023-09-09T23:23:50.517Z,80.04
2023-09-09T23:28:43.541Z,82.18
2023-09-09T23:33:35.927Z,83.28
2023-09-09T23:38:28.300Z,87.00
2023-09-09T23:43:20.586Z,90.16
2023-09-09T23:48:14.545Z,89.45
2023-09-09T23:53:06.778Z,91.56
2023-09-09T23:57:58.954Z,94.07
